createdAt,value
2018-11-22T12:17:16.128Z,85.80
2018-11-22T12:19:44.513Z,85.70
2018-11-22T12:24:40.984Z,85.90
2018-11-22T12:27:09.404Z,86.10
2018-11-22T12:29:37.788Z,86.20
2018-11-22T12:32:11.700Z,86.60
2018-11-22T12:34:45.572Z,86.10
2018-11-22T12:37:19.261Z,86.30
2018-11-22T12:39:47.657Z,86.50
2018-11-22T12:42:16.036Z,86.30
2018-11-22T12:44:44.435Z,86.30
2018-11-22T12:47:12.861Z,86.60
2018-11-22T12:49:41.236Z,86.50
2018-11-22T12:52:09.634Z,86.50
2018-11-22T12:54:38.009Z,86.30
2018-11-22T12:57:06.571Z,86.10
2018-11-22T12:59:34.836Z,85.70
2018-11-22T13:02:03.337Z,85.60
2018-11-22T13:04:31.729Z,85.30
2018-11-22T13:07:00.160Z,85.30
2018-11-22T13:09:28.536Z,84.90
2018-11-22T13:11:56.921Z,85.10
2018-11-22T13:14:25.293Z,85.30
2018-11-22T13:16:53.727Z,85.50
2018-11-22T13:19:22.121Z,84.20
2018-11-22T13:21:50.518Z,84.50
2018-11-22T13:24:18.884Z,83.70
2018-11-22T13:26:47.308Z,83.90
2018-11-22T13:29:15.701Z,84.40
2018-11-22T13:31:44.248Z,84.10
2018-11-22T13:34:12.686Z,84.00
2018-11-22T13:36:41.085Z,84.10
2018-11-22T13:41:38.826Z,84.00
2018-11-22T13:44:07.343Z,84.20
2018-11-22T13:46:35.753Z,83.90
2018-11-22T13:49:04.361Z,84.10
2018-11-22T13:51:32.949Z,84.30
2018-11-22T13:54:01.375Z,84.30
2018-11-22T13:56:29.777Z,84.10
2018-11-22T14:01:26.296Z,84.30
2018-11-22T14:03:54.712Z,84.80
2018-11-22T14:08:51.232Z,85.20
2018-11-22T14:11:19.632Z,84.90
2018-11-22T14:13:47.988Z,84.80
2018-11-22T14:18:44.446Z,85.20
2018-11-22T14:23:41.077Z,85.30
2018-11-22T14:26:09.454Z,85.30
2018-11-22T14:31:06.234Z,85.50
2018-11-22T14:33:34.637Z,85.60
2018-11-22T14:36:03.018Z,85.60
2018-11-22T14:38:31.393Z,85.60
2018-11-22T14:43:27.881Z,86.00
2018-11-22T14:45:56.252Z,86.00
2018-11-22T14:48:24.657Z,86.00
2018-11-22T14:50:58.988Z,85.90
2018-11-22T14:53:27.396Z,86.20
2018-11-22T14:55:55.882Z,86.80
2018-11-22T14:58:24.264Z,86.80
2018-11-22T15:00:52.666Z,87.00
2018-11-22T15:03:21.086Z,86.90
2018-11-22T15:05:49.491Z,87.50
2018-11-22T15:08:17.865Z,87.60
2018-11-22T15:10:46.241Z,87.80
2018-11-22T15:13:15.128Z,88.00
2018-11-22T15:15:43.040Z,88.10
2018-11-22T15:20:39.526Z,88.50
2018-11-22T15:25:36.020Z,89.20
2018-11-22T15:30:32.501Z,88.70
2018-11-22T15:33:00.904Z,89.20
2018-11-22T15:35:30.377Z,89.80
2018-11-22T15:37:58.754Z,90.10
2018-11-22T15:40:27.441Z,90.10
2018-11-22T15:42:57.572Z,90.20
2018-11-22T15:45:30.347Z,90.30
2018-11-22T15:47:55.248Z,90.20
2018-11-22T15:52:53.061Z,90.30
2018-11-22T15:55:21.887Z,90.30
2018-11-22T15:57:51.626Z,90.10
2018-11-22T16:00:26.716Z,90.20
2018-11-22T16:02:55.639Z,90.60
2018-11-22T16:05:25.157Z,90.80
2018-11-22T16:07:53.667Z,90.50
2018-11-22T16:10:26.983Z,90.70
2018-11-22T16:13:00.288Z,90.40
2018-11-22T16:15:32.566Z,90.50
2018-11-22T16:18:00.955Z,90.60
2018-11-22T16:20:29.315Z,90.80
2018-11-22T16:22:57.720Z,90.70
2018-11-22T16:25:26.094Z,90.80
2018-11-22T16:27:54.530Z,91.00
2018-11-22T16:30:24.226Z,91.00
2018-11-22T16:32:52.939Z,90.90
2018-11-22T16:35:22.001Z,91.00
2018-11-22T16:37:50.383Z,91.10
2018-11-22T16:40:21.111Z,91.20
2018-11-22T16:42:50.525Z,91.40
2018-11-22T16:45:21.256Z,91.20
2018-11-22T16:47:49.744Z,91.40
2018-11-22T16:50:19.564Z,91.60
2018-11-22T16:52:47.985Z,91.80
2018-11-22T16:55:16.609Z,92.10
2018-11-22T16:57:46.092Z,91.90
2018-11-22T17:02:50.861Z,92.10
2018-11-22T17:05:19.616Z,92.10
2018-11-22T17:10:18.881Z,92.30
2018-11-22T17:12:48.114Z,92.40
2018-11-22T17:15:17.834Z,92.60
2018-11-22T17:17:46.704Z,92.30
2018-11-22T17:20:16.346Z,92.50
2018-11-22T17:22:45.309Z,92.50
2018-11-22T17:25:15.543Z,92.20
2018-11-22T17:30:15.183Z,91.90
2018-11-22T17:32:43.922Z,91.90
2018-11-22T17:35:14.218Z,91.90
2018-11-22T17:37:42.830Z,91.90
2018-11-22T17:40:15.380Z,92.10
2018-11-22T17:42:43.809Z,92.30
2018-11-22T17:45:14.064Z,92.50
2018-11-22T17:47:42.676Z,92.40
2018-11-22T17:50:13.536Z,92.40
2018-11-22T17:52:42.349Z,92.80
2018-11-22T17:55:13.752Z,93.10
2018-11-22T17:57:42.228Z,93.40
2018-11-22T18:00:13.957Z,93.50
2018-11-22T18:02:42.554Z,93.70
2018-11-22T18:05:11.261Z,93.80
2018-11-22T18:07:39.632Z,93.60
2018-11-22T18:10:10.265Z,93.70
2018-11-22T18:12:38.638Z,93.80
2018-11-22T18:15:09.076Z,93.90
2018-11-22T18:17:38.162Z,94.10
2018-11-22T18:20:11.053Z,94.30
2018-11-22T18:22:39.692Z,94.80
2018-11-22T18:27:37.260Z,94.80
2018-11-22T18:30:08.294Z,94.80
2018-11-22T18:32:36.653Z,94.80
2018-11-22T18:35:05.760Z,94.60
2018-11-22T18:37:34.116Z,94.60
2018-11-22T18:40:02.493Z,94.10
2018-11-22T18:42:30.864Z,94.10
2018-11-22T18:44:59.241Z,94.10
2018-11-22T18:47:27.589Z,93.80
2018-11-22T18:49:55.961Z,93.80
2018-11-22T18:52:24.314Z,93.60
2018-11-22T18:54:52.693Z,93.30
2018-11-22T18:57:21.346Z,93.30
2018-11-22T18:59:49.732Z,93.20
2018-11-22T19:02:18.098Z,93.10
2018-11-22T19:04:46.501Z,93.30
2018-11-22T19:07:14.860Z,93.20
2018-11-22T19:09:43.241Z,93.20
2018-11-22T19:12:11.607Z,92.70
2018-11-22T19:14:39.985Z,92.50
2018-11-22T19:17:09.289Z,92.40
2018-11-22T19:19:37.669Z,92.30
2018-11-22T19:22:06.078Z,92.50
2018-11-22T19:24:34.445Z,92.50
2018-11-22T19:27:02.810Z,92.30
2018-11-22T19:29:31.375Z,92.40
2018-11-22T19:31:59.741Z,92.30
2018-11-22T19:34:28.148Z,91.90
2018-11-22T19:39:24.592Z,92.20
2018-11-22T19:41:52.952Z,92.10
2018-11-22T19:44:21.541Z,92.00
2018-11-22T19:46:49.917Z,92.00
2018-11-22T19:49:18.296Z,91.70
2018-11-22T19:51:46.662Z,92.10
2018-11-22T19:54:15.045Z,92.00
2018-11-22T19:56:47.960Z,91.40
2018-11-22T19:59:16.341Z,91.60
2018-11-22T20:01:44.816Z,92.10
2018-11-22T20:04:13.193Z,92.50
2018-11-22T20:06:41.921Z,92.50
2018-11-22T20:09:11.433Z,92.70
2018-11-22T20:11:39.827Z,92.70
2018-11-22T20:14:08.237Z,92.70
2018-11-22T20:16:36.631Z,92.40
2018-11-22T20:21:33.321Z,92.40
2018-11-22T20:24:01.692Z,92.30
2018-11-22T20:26:30.071Z,92.30
2018-11-22T20:28:58.469Z,92.40
2018-11-22T20:31:26.854Z,92.20
2018-11-22T20:33:55.228Z,92.20
2018-11-22T20:36:23.613Z,92.30
2018-11-22T20:38:51.981Z,92.30
2018-11-22T20:41:20.392Z,92.40
2018-11-22T20:46:16.834Z,92.40
2018-11-22T20:48:45.189Z,92.60
2018-11-22T20:51:13.582Z,92.60
2018-11-22T20:53:41.951Z,92.60
2018-11-22T20:56:10.334Z,92.70
2018-11-22T20:58:38.697Z,92.80
2018-11-22T21:01:07.094Z,92.90
2018-11-22T21:03:35.445Z,92.80
2018-11-22T21:08:31.953Z,92.60
2018-11-22T21:11:00.347Z,92.40
2018-11-22T21:13:28.721Z,92.40
2018-11-22T21:15:57.081Z,92.30
2018-11-22T21:20:53.560Z,92.20
2018-11-22T21:23:21.928Z,92.00
2018-11-22T21:25:50.306Z,91.90
2018-11-22T21:28:18.729Z,91.80
2018-11-22T21:30:47.162Z,91.80
2018-11-22T21:33:15.548Z,91.80
2018-11-22T21:38:12.049Z,91.80
2018-11-22T21:40:40.438Z,91.60
2018-11-22T21:43:08.831Z,91.50
2018-11-22T21:45:37.206Z,91.40
2018-11-22T21:48:05.709Z,91.30
2018-11-22T21:50:34.085Z,91.20
2018-11-22T21:53:02.468Z,91.20
2018-11-22T21:55:36.400Z,91.40
2018-11-22T21:58:04.801Z,91.20
2018-11-22T22:00:37.959Z,91.20
2018-11-22T22:03:07.764Z,91.20
2018-11-22T22:05:36.322Z,91.30
2018-11-22T22:08:04.757Z,91.10
2018-11-22T22:10:33.162Z,91.00
2018-11-22T22:13:01.567Z,91.00
2018-11-22T22:15:31.292Z,91.20
2018-11-22T22:17:59.727Z,91.10
2018-11-22T22:20:29.546Z,91.30
2018-11-22T22:22:57.932Z,91.80
2018-11-22T22:25:27.072Z,92.60
2018-11-22T22:27:56.030Z,93.20
2018-11-22T22:30:25.721Z,93.40
2018-11-22T22:32:55.428Z,93.50
2018-11-22T22:35:23.792Z,93.30
2018-11-22T22:37:52.288Z,93.50
2018-11-22T22:40:21.982Z,93.40
2018-11-22T22:42:51.733Z,93.20
2018-11-22T22:45:21.189Z,93.20
2018-11-22T22:47:50.194Z,93.20
2018-11-22T22:50:19.905Z,92.90
2018-11-22T22:52:49.420Z,92.80
2018-11-22T22:55:17.820Z,92.80
2018-11-22T22:57:46.245Z,92.70
2018-11-22T23:00:24.413Z,92.70
2018-11-22T23:02:54.165Z,92.80
2018-11-22T23:05:23.148Z,92.70
2018-11-22T23:07:51.741Z,92.70
2018-11-22T23:10:20.509Z,92.50
2018-11-22T23:12:48.909Z,92.40
2018-11-22T23:15:18.244Z,92.40
2018-11-22T23:17:46.634Z,92.50
2018-11-22T23:20:17.602Z,92.50
2018-11-22T23:22:46.583Z,92.60
2018-11-22T23:25:15.581Z,92.50
2018-11-22T23:27:43.980Z,92.60
2018-11-22T23:30:16.077Z,92.30
2018-11-22T23:32:45.883Z,92.50
2018-11-22T23:35:14.294Z,92.30
2018-11-22T23:37:42.983Z,92.30
2018-11-22T23:40:13.316Z,92.20
2018-11-22T23:42:42.011Z,92.20
2018-11-22T23:45:11.787Z,92.30
2018-11-22T23:47:40.644Z,92.30
2018-11-22T23:50:11.252Z,92.10
2018-11-22T23:52:39.988Z,91.90
2018-11-22T23:55:08.996Z,91.80
2018-11-22T23:57:37.463Z,92.00
